createdAt,value
2022-09-16T00:00:53.972Z,3.13
2022-09-16T00:03:21.771Z,3.13
2022-09-16T00:05:52.669Z,3.70
2022-09-16T00:08:21.123Z,3.30
2022-09-16T00:10:49.037Z,3.50
2022-09-16T00:13:19.995Z,3.78
2022-09-16T00:15:50.973Z,2.75
2022-09-16T00:18:20.243Z,3.40
2022-09-16T00:20:50.797Z,3.30
2022-09-16T00:23:19.657Z,3.40
2022-09-16T00:25:53.588Z,3.45
2022-09-16T00:28:21.729Z,3.40
2022-09-16T00:30:52.132Z,3.40
2022-09-16T00:33:22.142Z,3.00
2022-09-16T00:35:51.156Z,3.78
2022-09-16T00:38:19.636Z,3.05
2022-09-16T00:40:49.099Z,3.63
2022-09-16T00:43:19.607Z,3.22
2022-09-16T00:45:55.727Z,3.75
2022-09-16T00:48:28.533Z,2.70
2022-09-16T00:51:01.356Z,3.25
2022-09-16T00:53:32.232Z,3.20
2022-09-16T00:56:04.092Z,4.10
2022-09-16T00:58:39.977Z,3.40
2022-09-16T01:01:08.276Z,3.92
2022-09-16T01:03:41.478Z,3.58
2022-09-16T01:06:11.449Z,4.18
2022-09-16T01:08:39.477Z,3.65
2022-09-16T01:11:09.828Z,3.60
2022-09-16T01:13:38.602Z,4.18
2022-09-16T01:16:09.812Z,3.03
2022-09-16T01:18:44.939Z,3.42
2022-09-16T01:21:27.509Z,4.18
2022-09-16T01:24:19.329Z,4.32
2022-09-16T01:27:11.096Z,4.85
2022-09-16T01:30:07.448Z,4.60
2022-09-16T01:32:47.386Z,4.53
2022-09-16T01:35:23.932Z,3.50
2022-09-16T01:38:02.320Z,4.25
2022-09-16T01:40:36.231Z,3.47
2022-09-16T01:43:10.749Z,3.47
2022-09-16T01:45:45.460Z,3.75
2022-09-16T01:48:25.206Z,4.37
2022-09-16T01:51:00.492Z,4.28
2022-09-16T01:53:33.600Z,3.60
2022-09-16T01:56:07.035Z,4.28
2022-09-16T01:58:42.186Z,4.15
2022-09-16T02:01:15.397Z,3.58
2022-09-16T02:03:51.814Z,3.13
2022-09-16T02:06:23.797Z,2.93
2022-09-16T02:08:56.905Z,3.50
2022-09-16T02:11:25.931Z,2.90
2022-09-16T02:14:00.576Z,2.92
2022-09-16T02:16:33.956Z,2.35
2022-09-16T02:19:11.649Z,3.50
2022-09-16T02:21:45.630Z,2.63
2022-09-16T02:24:18.280Z,2.70
2022-09-16T02:26:48.432Z,2.55
2022-09-16T02:29:22.088Z,2.53
2022-09-16T02:31:55.886Z,2.30
2022-09-16T02:34:29.347Z,2.63
2022-09-16T02:37:02.338Z,2.10
2022-09-16T02:39:33.572Z,2.75
2022-09-16T02:42:02.295Z,2.20
2022-09-16T02:44:30.681Z,2.53
2022-09-16T02:47:07.710Z,2.75
2022-09-16T02:49:44.118Z,2.45
2022-09-16T02:52:19.181Z,2.30
2022-09-16T02:54:52.968Z,2.08
2022-09-16T02:57:23.341Z,1.90
2022-09-16T02:59:51.602Z,2.58
2022-09-16T03:02:19.418Z,3.22
2022-09-16T03:04:48.805Z,2.15
2022-09-16T03:07:17.178Z,2.00
2022-09-16T03:09:48.661Z,2.70
2022-09-16T03:12:26.524Z,2.40
2022-09-16T03:15:08.996Z,2.20
2022-09-16T03:17:56.226Z,2.10
2022-09-16T03:20:35.203Z,2.08
2022-09-16T03:23:13.156Z,2.10
2022-09-16T03:25:50.798Z,2.00
2022-09-16T03:28:23.479Z,1.93
2022-09-16T03:31:00.659Z,2.10
2022-09-16T03:33:33.707Z,1.95
2022-09-16T03:36:06.674Z,1.80
2022-09-16T03:38:36.995Z,1.98
2022-09-16T03:41:05.641Z,2.60
2022-09-16T03:43:33.304Z,1.70
2022-09-16T03:46:01.023Z,2.20
2022-09-16T03:48:29.003Z,1.98
2022-09-16T03:50:59.679Z,2.00
2022-09-16T03:53:30.978Z,1.60
2022-09-16T03:55:58.620Z,2.53
2022-09-16T03:58:26.426Z,1.77
2022-09-16T04:00:54.256Z,1.80
2022-09-16T04:03:22.118Z,2.47
2022-09-16T04:05:53.752Z,2.00
2022-09-16T04:08:24.199Z,1.98
2022-09-16T04:10:57.595Z,2.40
2022-09-16T04:13:25.314Z,2.72
2022-09-16T04:15:52.999Z,2.10
2022-09-16T04:18:20.846Z,1.90
2022-09-16T04:20:48.589Z,2.03
2022-09-16T04:23:16.361Z,2.05
2022-09-16T04:25:44.055Z,1.80
2022-09-16T04:28:13.115Z,3.00
2022-09-16T04:30:40.873Z,2.97
2022-09-16T04:33:08.647Z,3.20
2022-09-16T04:35:36.389Z,3.10
2022-09-16T04:38:06.296Z,3.08
2022-09-16T04:40:34.144Z,3.00
2022-09-16T04:43:02.047Z,3.33
2022-09-16T04:45:33.184Z,3.50
2022-09-16T04:48:00.900Z,3.10
2022-09-16T04:50:28.661Z,2.95
2022-09-16T04:52:56.371Z,3.47
2022-09-16T04:55:26.193Z,2.60
2022-09-16T04:57:53.892Z,2.70
2022-09-16T05:00:24.019Z,2.08
2022-09-16T05:02:54.723Z,2.60
2022-09-16T05:05:22.562Z,2.50
2022-09-16T05:07:53.689Z,2.38
2022-09-16T05:10:21.533Z,3.20
2022-09-16T05:12:52.034Z,2.88
2022-09-16T05:15:20.331Z,2.80
2022-09-16T05:17:51.260Z,3.60
2022-09-16T05:20:23.174Z,3.00
2022-09-16T05:22:51.551Z,2.97
2022-09-16T05:25:21.574Z,2.25
2022-09-16T05:27:49.329Z,1.97
2022-09-16T05:30:17.493Z,2.65
2022-09-16T05:32:45.326Z,2.50
2022-09-16T05:35:13.279Z,2.83
2022-09-16T05:37:42.338Z,3.33
2022-09-16T05:40:10.399Z,2.72
2022-09-16T05:42:38.174Z,2.72
2022-09-16T05:45:09.559Z,3.42
2022-09-16T05:47:37.307Z,2.90
2022-09-16T05:50:05.975Z,3.40
2022-09-16T05:52:33.890Z,2.78
2022-09-16T05:55:03.284Z,2.35
2022-09-16T05:57:31.303Z,2.50
2022-09-16T05:59:59.102Z,3.17
2022-09-16T06:02:26.891Z,4.32
2022-09-16T06:04:54.625Z,3.55
2022-09-16T06:07:22.524Z,4.13
2022-09-16T06:09:50.275Z,2.78
2022-09-16T06:12:19.349Z,2.55
2022-09-16T06:14:47.093Z,3.00
2022-09-16T06:17:14.796Z,3.10
2022-09-16T06:19:42.432Z,2.50
2022-09-16T06:22:10.136Z,2.47
2022-09-16T06:24:37.862Z,2.97
2022-09-16T06:27:08.545Z,2.78
2022-09-16T06:29:39.735Z,4.05
2022-09-16T06:32:07.497Z,2.70
2022-09-16T06:34:35.182Z,2.20
2022-09-16T06:37:02.887Z,2.10
2022-09-16T06:39:30.576Z,3.03
2022-09-16T06:41:58.294Z,2.80
2022-09-16T06:44:42.343Z,2.70
2022-09-16T06:47:10.292Z,3.00
2022-09-16T06:49:40.460Z,3.20
2022-09-16T06:52:09.377Z,2.85
2022-09-16T06:54:37.151Z,2.80
2022-09-16T06:57:09.913Z,3.70
2022-09-16T06:59:40.228Z,3.58
2022-09-16T07:02:10.776Z,3.23
2022-09-16T07:04:38.883Z,3.00
2022-09-16T07:07:10.695Z,3.00
2022-09-16T07:09:38.586Z,2.92
2022-09-16T07:12:06.760Z,2.10
2022-09-16T07:14:36.551Z,2.60
2022-09-16T07:17:08.911Z,2.30
2022-09-16T07:19:42.278Z,3.72
2022-09-16T07:22:11.434Z,3.60
2022-09-16T07:24:39.174Z,3.30
2022-09-16T07:27:07.096Z,2.80
2022-09-16T07:29:37.966Z,2.20
2022-09-16T07:32:05.740Z,3.10
2022-09-16T07:34:35.669Z,2.73
2022-09-16T07:37:04.738Z,3.97
2022-09-16T07:39:34.775Z,4.17
2022-09-16T07:42:06.082Z,3.30
2022-09-16T07:44:34.075Z,3.47
2022-09-16T07:47:01.838Z,3.80
2022-09-16T07:49:29.557Z,3.17
2022-09-16T07:51:57.384Z,2.85
2022-09-16T07:54:26.447Z,3.40
2022-09-16T07:56:54.103Z,3.80
2022-09-16T07:59:21.859Z,2.97
2022-09-16T08:01:50.724Z,3.58
2022-09-16T08:04:21.529Z,3.40
2022-09-16T08:06:49.551Z,3.10
2022-09-16T08:12:07.914Z,3.07
2022-09-16T08:14:36.001Z,3.90
2022-09-16T08:17:03.853Z,3.53
2022-09-16T08:19:31.563Z,3.27
2022-09-16T08:22:01.323Z,2.75
2022-09-16T08:24:31.444Z,3.60
2022-09-16T08:26:59.181Z,3.55
2022-09-16T08:29:28.339Z,4.20
2022-09-16T08:31:56.225Z,3.40
2022-09-16T08:34:24.136Z,3.80
2022-09-16T08:36:52.007Z,3.78
2022-09-16T08:39:20.863Z,3.38
2022-09-16T08:42:07.957Z,3.55
2022-09-16T08:44:44.511Z,4.22
2022-09-16T08:47:23.286Z,4.13
2022-09-16T08:49:53.120Z,3.80
2022-09-16T08:52:31.957Z,3.77
2022-09-16T08:55:03.377Z,3.50
2022-09-16T08:57:35.689Z,3.75
2022-09-16T09:00:14.519Z,3.50
2022-09-16T09:02:48.833Z,3.25
2022-09-16T09:05:19.870Z,3.30
2022-09-16T09:07:56.591Z,3.20
2022-09-16T09:10:32.589Z,3.03
2022-09-16T09:13:10.967Z,3.77
2022-09-16T09:15:44.399Z,2.90
2022-09-16T09:18:27.148Z,3.13
2022-09-16T09:21:10.027Z,3.50
2022-09-16T09:23:53.481Z,3.27
2022-09-16T09:26:23.467Z,2.90
2022-09-16T09:29:15.297Z,3.58
2022-09-16T09:31:54.257Z,3.30
2022-09-16T09:34:37.024Z,2.78
2022-09-16T09:37:30.354Z,3.03
2022-09-16T09:40:08.644Z,2.88
2022-09-16T09:42:45.518Z,2.65
2022-09-16T09:45:24.200Z,3.10
2022-09-16T09:47:59.177Z,3.22
2022-09-16T09:50:30.937Z,3.65
2022-09-16T09:53:12.664Z,3.28
2022-09-16T09:55:42.800Z,3.47
2022-09-16T09:58:23.683Z,2.80
2022-09-16T10:00:53.159Z,2.70
2022-09-16T10:03:22.668Z,3.13
2022-09-16T10:05:52.789Z,3.10
2022-09-16T10:08:27.675Z,2.60
2022-09-16T10:10:57.114Z,2.85
2022-09-16T10:13:26.772Z,2.50
2022-09-16T10:16:10.424Z,2.80
2022-09-16T10:18:40.474Z,2.88
2022-09-16T10:21:10.705Z,2.90
2022-09-16T10:23:39.144Z,2.45
2022-09-16T10:26:17.764Z,2.55
2022-09-16T10:28:55.315Z,2.20
2022-09-16T10:31:24.070Z,2.63
2022-09-16T10:33:55.972Z,2.55
2022-09-16T10:36:26.348Z,2.10
2022-09-16T10:39:02.291Z,2.00
2022-09-16T10:41:35.330Z,2.55
2022-09-16T10:44:07.546Z,2.13
2022-09-16T10:46:35.536Z,2.63
2022-09-16T10:49:12.971Z,2.60
2022-09-16T10:51:44.618Z,2.40
2022-09-16T10:54:25.197Z,2.33
2022-09-16T10:56:53.589Z,2.50
2022-09-16T10:59:21.843Z,2.60
2022-09-16T11:01:59.376Z,2.38
2022-09-16T11:04:48.839Z,2.58
2022-09-16T11:07:33.066Z,2.53
2022-09-16T11:10:11.942Z,2.70
2022-09-16T11:12:57.211Z,2.65
2022-09-16T11:15:35.899Z,2.70
2022-09-16T11:18:19.849Z,1.90
2022-09-16T11:21:08.689Z,3.03
2022-09-16T11:23:54.348Z,2.60
2022-09-16T11:26:31.938Z,2.47
2022-09-16T11:29:34.207Z,2.97
2022-09-16T11:32:13.714Z,2.30
2022-09-16T11:34:55.272Z,3.10
2022-09-16T11:37:29.590Z,2.53
2022-09-16T11:40:21.212Z,2.40
2022-09-16T11:42:57.561Z,2.60
2022-09-16T11:45:45.604Z,2.35
2022-09-16T11:48:37.892Z,2.20
2022-09-16T11:51:13.987Z,2.15
2022-09-16T11:54:02.689Z,1.80
2022-09-16T11:56:37.447Z,2.20
2022-09-16T11:59:14.701Z,2.07
2022-09-16T12:01:45.480Z,1.90
2022-09-16T12:04:20.492Z,1.83
2022-09-16T12:06:55.989Z,2.03
2022-09-16T12:09:35.228Z,2.10
2022-09-16T12:12:11.795Z,2.08
2022-09-16T12:14:43.668Z,1.77
2022-09-16T12:17:18.483Z,1.92
2022-09-16T12:19:53.350Z,1.45
2022-09-16T12:22:24.577Z,1.63
2022-09-16T12:25:03.519Z,1.80
2022-09-16T12:27:42.165Z,2.10
2022-09-16T12:30:16.821Z,2.15
2022-09-16T12:32:54.632Z,1.65
2022-09-16T12:35:27.458Z,1.60
2022-09-16T12:37:57.499Z,1.60
2022-09-16T12:40:28.944Z,1.70
2022-09-16T12:43:18.266Z,1.60
2022-09-16T12:46:09.620Z,1.70
2022-09-16T12:49:00.004Z,1.67
2022-09-16T12:52:07.504Z,1.70
2022-09-16T12:55:08.102Z,1.80
2022-09-16T12:57:52.544Z,1.40
2022-09-16T13:00:22.401Z,1.27
2022-09-16T13:02:53.976Z,1.25
2022-09-16T13:05:30.857Z,1.10
2022-09-16T13:08:04.589Z,1.50
2022-09-16T13:10:54.567Z,1.27
2022-09-16T13:13:35.432Z,1.30
2022-09-16T13:16:06.093Z,1.23
2022-09-16T13:18:43.048Z,1.38
2022-09-16T13:21:23.541Z,1.37
2022-09-16T13:24:00.695Z,1.33
2022-09-16T13:26:40.051Z,1.40
2022-09-16T13:29:28.411Z,1.73
2022-09-16T13:34:29.198Z,1.60
2022-09-16T13:36:57.775Z,1.50
2022-09-16T13:39:31.581Z,2.00
2022-09-16T13:42:11.368Z,1.60
2022-09-16T13:44:44.133Z,1.73
2022-09-16T13:47:17.196Z,1.80
2022-09-16T13:49:49.756Z,1.75
2022-09-16T13:52:21.909Z,1.67
2022-09-16T13:55:10.088Z,1.65
2022-09-16T13:58:00.257Z,1.70
2022-09-16T14:00:37.616Z,1.48
2022-09-16T14:03:26.743Z,1.90
2022-09-16T14:06:34.287Z,1.30
2022-09-16T14:09:13.352Z,1.50
2022-09-16T14:11:48.959Z,1.60
2022-09-16T14:14:45.888Z,1.40
2022-09-16T14:17:18.745Z,1.30
2022-09-16T14:19:49.560Z,1.70
2022-09-16T14:22:19.798Z,1.70
2022-09-16T14:24:50.385Z,1.70
2022-09-16T14:27:29.771Z,1.77
2022-09-16T14:29:59.067Z,1.80
2022-09-16T14:32:31.436Z,1.77
2022-09-16T14:35:09.511Z,1.77
2022-09-16T14:37:39.816Z,1.50
2022-09-16T14:40:13.730Z,1.70
2022-09-16T14:42:49.159Z,1.77
2022-09-16T14:45:18.527Z,1.40
2022-09-16T14:47:52.125Z,1.70
2022-09-16T14:50:23.232Z,1.60
2022-09-16T14:52:56.661Z,1.90
2022-09-16T14:55:28.460Z,1.90
2022-09-16T14:57:56.452Z,1.40
2022-09-16T15:00:29.361Z,2.00
2022-09-16T15:03:04.378Z,1.83
2022-09-16T15:05:36.713Z,1.80
2022-09-16T15:08:14.404Z,1.50
2022-09-16T15:10:52.099Z,1.60
2022-09-16T15:13:22.922Z,1.50
2022-09-16T15:15:54.363Z,1.50
2022-09-16T15:18:28.484Z,1.40
2022-09-16T15:21:05.619Z,1.70
2022-09-16T15:23:34.521Z,1.70
2022-09-16T15:26:13.152Z,2.00
2022-09-16T15:28:54.333Z,1.60
2022-09-16T15:31:44.716Z,1.73
2022-09-16T15:34:24.736Z,1.50
2022-09-16T15:37:02.198Z,1.40
2022-09-16T15:39:31.774Z,1.70
2022-09-16T15:42:13.022Z,1.90
2022-09-16T15:44:47.616Z,1.50
2022-09-16T15:47:21.198Z,1.48
2022-09-16T15:49:54.740Z,1.40
2022-09-16T15:52:23.283Z,1.52
2022-09-16T15:54:55.330Z,1.37
2022-09-16T15:57:30.851Z,1.58
2022-09-16T16:00:10.900Z,1.70
2022-09-16T16:02:46.726Z,1.58
2022-09-16T16:05:18.542Z,2.47
2022-09-16T16:07:49.789Z,1.95
2022-09-16T16:10:20.752Z,1.42
2022-09-16T16:12:48.930Z,1.30
2022-09-16T16:15:22.489Z,1.60
2022-09-16T16:17:51.380Z,1.65
2022-09-16T16:20:21.821Z,1.52
2022-09-16T16:22:49.828Z,1.75
2022-09-16T16:25:18.066Z,1.77
2022-09-16T16:27:46.261Z,1.63
2022-09-16T16:30:14.750Z,1.23
2022-09-16T16:32:42.676Z,1.30
2022-09-16T16:35:16.531Z,1.35
2022-09-16T16:37:48.245Z,1.30
2022-09-16T16:40:16.859Z,1.70
2022-09-16T16:42:45.127Z,2.00
2022-09-16T16:45:13.427Z,1.40
2022-09-16T16:47:41.426Z,1.40
2022-09-16T16:50:10.180Z,1.20
2022-09-16T16:52:38.359Z,1.50
2022-09-16T16:55:08.490Z,1.52
2022-09-16T16:57:36.283Z,1.40
2022-09-16T17:00:04.759Z,1.30
2022-09-16T17:02:32.625Z,1.50
2022-09-16T17:05:00.478Z,1.48
2022-09-16T17:07:30.345Z,1.38
2022-09-16T17:10:00.691Z,1.00
2022-09-16T17:12:30.234Z,1.07
2022-09-16T17:14:58.042Z,1.17
2022-09-16T17:17:30.700Z,1.30
2022-09-16T17:19:59.412Z,1.10
2022-09-16T17:22:27.429Z,0.90
2022-09-16T17:24:55.556Z,1.55
2022-09-16T17:27:26.810Z,1.20
2022-09-16T17:29:55.883Z,0.90
2022-09-16T17:32:23.692Z,0.70
2022-09-16T17:34:51.439Z,1.07
2022-09-16T17:37:19.885Z,1.10
2022-09-16T17:39:48.565Z,0.80
2022-09-16T17:42:16.499Z,0.80
2022-09-16T17:44:44.259Z,0.70
2022-09-16T17:47:13.334Z,0.83
2022-09-16T17:49:41.381Z,1.00
2022-09-16T17:52:09.348Z,1.10
2022-09-16T17:54:37.067Z,1.10
2022-09-16T17:57:04.997Z,1.10
2022-09-16T17:59:32.836Z,1.20
2022-09-16T18:02:00.731Z,1.40
2022-09-16T18:04:31.011Z,1.60
2022-09-16T18:06:58.780Z,1.73
2022-09-16T18:09:26.580Z,1.30
2022-09-16T18:11:54.369Z,1.10
2022-09-16T18:14:23.541Z,1.40
2022-09-16T18:16:51.851Z,1.20
2022-09-16T18:19:22.834Z,1.15
2022-09-16T18:21:51.945Z,1.10
2022-09-16T18:24:20.006Z,1.23
2022-09-16T18:26:47.746Z,1.10
2022-09-16T18:29:15.544Z,1.50
2022-09-16T18:31:47.534Z,1.10
2022-09-16T18:34:16.514Z,1.27
2022-09-16T18:36:44.422Z,1.10
2022-09-16T18:39:17.571Z,1.03
2022-09-16T18:41:48.181Z,1.00
2022-09-16T18:44:19.547Z,0.80
2022-09-16T18:46:49.318Z,0.90
2022-09-16T18:49:18.565Z,1.30
2022-09-16T18:51:51.331Z,1.00
2022-09-16T18:54:24.704Z,1.20
2022-09-16T18:56:55.633Z,1.05
2022-09-16T18:59:28.357Z,0.80
2022-09-16T19:01:57.916Z,1.00
2022-09-16T19:04:30.223Z,0.90
2022-09-16T19:07:05.629Z,1.10
2022-09-16T19:09:36.041Z,1.65
2022-09-16T19:12:03.955Z,1.50
2022-09-16T19:14:31.871Z,1.80
2022-09-16T19:17:02.149Z,1.35
2022-09-16T19:19:29.952Z,1.50
2022-09-16T19:21:57.724Z,1.10
2022-09-16T19:24:26.932Z,1.20
2022-09-16T19:26:56.451Z,0.80
2022-09-16T19:29:24.516Z,0.95
2022-09-16T19:31:53.759Z,1.02
2022-09-16T19:34:22.624Z,0.90
2022-09-16T19:36:50.612Z,0.88
2022-09-16T19:39:21.029Z,0.80
2022-09-16T19:41:48.772Z,0.70
2022-09-16T19:44:20.368Z,0.80
2022-09-16T19:46:49.337Z,1.10
2022-09-16T19:49:19.657Z,0.63
2022-09-16T19:51:48.231Z,0.67
2022-09-16T19:54:16.464Z,0.80
2022-09-16T19:56:49.533Z,0.70
2022-09-16T19:59:20.116Z,0.70
2022-09-16T20:01:48.592Z,0.70
2022-09-16T20:04:20.825Z,0.75
2022-09-16T20:06:49.055Z,0.70
2022-09-16T20:09:17.174Z,0.77
2022-09-16T20:11:47.060Z,0.70
2022-09-16T20:14:16.775Z,0.70
2022-09-16T20:16:45.896Z,0.88
2022-09-16T20:19:16.129Z,0.70
2022-09-16T20:21:44.620Z,0.70
2022-09-16T20:24:16.301Z,0.60
2022-09-16T20:26:44.252Z,0.80
2022-09-16T20:29:11.933Z,0.70
2022-09-16T20:31:39.725Z,1.00
2022-09-16T20:34:08.989Z,1.05
2022-09-16T20:36:38.634Z,1.00
2022-09-16T20:39:11.102Z,0.80
2022-09-16T20:41:41.026Z,0.80
2022-09-16T20:44:12.388Z,0.70
2022-09-16T20:46:40.069Z,0.80
2022-09-16T20:49:10.640Z,0.88
2022-09-16T20:51:38.471Z,0.77
2022-09-16T20:54:12.181Z,0.70
2022-09-16T20:56:41.687Z,0.70
2022-09-16T20:59:11.297Z,0.67
2022-09-16T21:01:40.671Z,0.70
2022-09-16T21:04:13.391Z,0.70
2022-09-16T21:06:41.476Z,0.60
2022-09-16T21:09:12.399Z,0.88
2022-09-16T21:11:44.987Z,0.70
2022-09-16T21:14:15.441Z,0.75
2022-09-16T21:16:45.280Z,0.65
2022-09-16T21:19:14.574Z,0.85
2022-09-16T21:21:45.988Z,0.90
2022-09-16T21:24:14.320Z,0.70
2022-09-16T21:26:43.889Z,0.70
2022-09-16T21:29:14.017Z,0.70
2022-09-16T21:31:43.092Z,0.77
2022-09-16T21:34:14.871Z,0.80
2022-09-16T21:36:44.480Z,0.80
2022-09-16T21:39:13.564Z,0.55
2022-09-16T21:41:41.361Z,0.70
2022-09-16T21:44:09.133Z,0.90
2022-09-16T21:46:43.968Z,0.80
2022-09-16T21:49:18.132Z,0.68
2022-09-16T21:51:45.890Z,0.60
2022-09-16T21:54:19.703Z,0.70
2022-09-16T21:56:48.459Z,0.67
2022-09-16T21:59:16.642Z,0.50
2022-09-16T22:01:44.899Z,0.75
2022-09-16T22:04:15.663Z,0.75
2022-09-16T22:06:45.835Z,0.60
2022-09-16T22:09:13.852Z,0.57
2022-09-16T22:11:43.682Z,0.65
2022-09-16T22:14:12.393Z,0.80
2022-09-16T22:16:41.603Z,0.60
2022-09-16T22:19:11.154Z,0.80
2022-09-16T22:21:42.714Z,0.60
2022-09-16T22:24:11.099Z,0.57
2022-09-16T22:26:39.767Z,0.73
2022-09-16T22:29:09.102Z,0.80
2022-09-16T22:31:38.621Z,0.50
2022-09-16T22:34:06.901Z,0.95
2022-09-16T22:36:38.383Z,0.70
2022-09-16T22:39:14.241Z,0.85
2022-09-16T22:41:42.567Z,0.85
2022-09-16T22:44:10.625Z,0.70
2022-09-16T22:46:42.575Z,0.80
2022-09-16T22:49:11.313Z,0.80
2022-09-16T22:51:39.402Z,0.60
2022-09-16T22:54:09.190Z,0.80
2022-09-16T22:56:37.129Z,0.70
2022-09-16T22:59:06.508Z,0.90
2022-09-16T23:01:36.867Z,0.90
2022-09-16T23:04:06.071Z,0.70
2022-09-16T23:06:35.532Z,0.73
2022-09-16T23:09:04.146Z,0.70
2022-09-16T23:11:34.980Z,0.80
2022-09-16T23:14:04.135Z,0.80
2022-09-16T23:16:34.175Z,0.70
2022-09-16T23:19:04.356Z,0.52
2022-09-16T23:21:32.485Z,0.87
2022-09-16T23:24:03.279Z,1.00
2022-09-16T23:26:33.943Z,0.77
2022-09-16T23:29:06.508Z,0.70
2022-09-16T23:31:37.664Z,0.80
2022-09-16T23:34:07.780Z,0.80
2022-09-16T23:36:37.585Z,0.70
2022-09-16T23:39:06.818Z,0.75
2022-09-16T23:41:36.595Z,1.00
2022-09-16T23:44:05.496Z,0.80
2022-09-16T23:46:34.414Z,0.70
2022-09-16T23:49:02.936Z,0.68
2022-09-16T23:51:32.245Z,0.70
2022-09-16T23:54:00.471Z,0.80
2022-09-16T23:56:30.511Z,0.70
2022-09-16T23:59:02.565Z,0.80
